createdAt,value
2018-05-18T00:00:01.648Z,13.00
2018-05-18T00:02:29.228Z,13.00
2018-05-18T00:04:56.896Z,12.90
2018-05-18T00:07:24.545Z,12.90
2018-05-18T00:09:52.165Z,12.80
2018-05-18T00:12:19.783Z,12.70
2018-05-18T00:14:47.419Z,12.70
2018-05-18T00:17:15.019Z,12.70
2018-05-18T00:19:42.678Z,12.70
2018-05-18T00:22:10.401Z,12.60
2018-05-18T00:24:38.026Z,12.60
2018-05-18T00:27:05.649Z,12.60
2018-05-18T00:29:33.290Z,12.50
2018-05-18T00:32:00.913Z,12.50
2018-05-18T00:34:28.550Z,12.50
2018-05-18T00:36:56.169Z,12.50
2018-05-18T00:39:24.596Z,12.50
2018-05-18T00:41:52.251Z,12.40
2018-05-18T00:44:19.911Z,12.40
2018-05-18T00:46:47.569Z,12.30
2018-05-18T00:49:15.173Z,12.40
2018-05-18T00:51:42.770Z,12.30
2018-05-18T00:54:11.186Z,12.30
2018-05-18T00:56:38.777Z,12.30
2018-05-18T00:59:06.384Z,12.30
2018-05-18T01:01:34.017Z,12.30
2018-05-18T01:04:02.386Z,12.30
2018-05-18T01:06:30.061Z,12.20
2018-05-18T01:08:58.414Z,12.20
2018-05-18T01:11:26.038Z,12.20
2018-05-18T01:13:53.627Z,12.20
2018-05-18T01:16:27.277Z,12.20
2018-05-18T01:18:57.804Z,12.10
2018-05-18T01:21:30.122Z,12.10
2018-05-18T01:24:02.316Z,12.10
2018-05-18T01:26:32.966Z,12.10
2018-05-18T01:29:03.562Z,12.00
2018-05-18T01:31:33.236Z,12.00
2018-05-18T01:34:03.171Z,12.00
2018-05-18T01:36:32.998Z,12.00
2018-05-18T01:39:03.712Z,12.00
2018-05-18T01:41:34.437Z,11.90
2018-05-18T01:44:04.391Z,11.90
2018-05-18T01:46:33.902Z,12.00
2018-05-18T01:49:12.192Z,11.90
2018-05-18T01:51:42.125Z,11.90
2018-05-18T01:54:11.858Z,11.80
2018-05-18T01:56:41.776Z,11.80
2018-05-18T01:59:11.632Z,11.80
2018-05-18T02:01:41.758Z,11.80
2018-05-18T02:04:11.415Z,11.80
2018-05-18T02:06:46.119Z,11.70
2018-05-18T02:09:16.880Z,11.80
2018-05-18T02:11:48.877Z,11.70
2018-05-18T02:14:19.440Z,11.80
2018-05-18T02:16:49.343Z,11.80
2018-05-18T02:19:19.835Z,11.80
2018-05-18T02:21:50.485Z,11.70
2018-05-18T02:24:24.718Z,11.70
2018-05-18T02:26:54.559Z,11.60
2018-05-18T02:29:26.377Z,11.60
2018-05-18T02:31:57.714Z,11.60
2018-05-18T02:34:29.322Z,11.60
2018-05-18T02:36:59.076Z,11.60
2018-05-18T02:39:29.833Z,11.70
2018-05-18T02:41:59.550Z,11.70
2018-05-18T02:44:30.085Z,11.70
2018-05-18T02:46:59.866Z,11.80
2018-05-18T02:49:29.990Z,11.70
2018-05-18T02:52:03.710Z,11.70
2018-05-18T02:54:34.195Z,11.70
2018-05-18T02:57:04.162Z,11.70
2018-05-18T02:59:33.927Z,11.70
2018-05-18T03:02:03.859Z,11.70
2018-05-18T03:04:33.567Z,11.70
2018-05-18T03:07:03.734Z,11.60
2018-05-18T03:09:34.188Z,11.50
2018-05-18T03:12:04.829Z,11.40
2018-05-18T03:14:35.031Z,11.50
2018-05-18T03:17:07.148Z,11.50
2018-05-18T03:19:38.993Z,11.40
2018-05-18T03:22:08.866Z,11.50
2018-05-18T03:24:38.455Z,11.50
2018-05-18T03:27:08.372Z,11.50
2018-05-18T03:29:38.166Z,11.50
2018-05-18T03:32:08.736Z,11.40
2018-05-18T03:34:39.876Z,11.40
2018-05-18T03:37:10.680Z,11.50
2018-05-18T03:39:41.359Z,11.40
2018-05-18T03:42:11.941Z,11.40
2018-05-18T03:44:42.559Z,11.50
2018-05-18T03:47:12.667Z,11.40
2018-05-18T03:49:43.339Z,11.50
2018-05-18T03:52:13.821Z,11.40
2018-05-18T03:54:43.647Z,11.40
2018-05-18T03:57:13.252Z,11.40
2018-05-18T03:59:43.085Z,11.30
2018-05-18T04:02:24.228Z,11.40
2018-05-18T04:05:05.370Z,11.40
2018-05-18T04:07:47.723Z,11.40
2018-05-18T04:10:17.531Z,11.40
2018-05-18T04:12:47.370Z,11.50
2018-05-18T04:15:18.063Z,11.40
2018-05-18T04:17:47.827Z,11.40
2018-05-18T04:20:17.708Z,11.50
2018-05-18T04:22:48.040Z,11.50
2018-05-18T04:25:17.832Z,11.40
2018-05-18T04:27:47.434Z,11.50
2018-05-18T04:30:18.113Z,11.50
2018-05-18T04:32:47.800Z,11.50
2018-05-18T04:35:17.359Z,11.60
2018-05-18T04:37:49.124Z,11.60
2018-05-18T04:40:21.453Z,11.70
2018-05-18T04:42:51.990Z,11.70
2018-05-18T04:45:22.824Z,11.70
2018-05-18T04:47:52.620Z,11.70
2018-05-18T04:50:22.449Z,11.70
2018-05-18T04:52:51.749Z,11.80
2018-05-18T04:55:21.811Z,11.80
2018-05-18T04:57:50.909Z,11.90
2018-05-18T05:00:20.946Z,11.90
2018-05-18T05:02:51.753Z,11.80
2018-05-18T05:05:22.521Z,11.80
2018-05-18T05:07:52.389Z,11.80
2018-05-18T05:10:23.484Z,11.70
2018-05-18T05:12:53.265Z,11.70
2018-05-18T05:15:23.210Z,11.70
2018-05-18T05:17:52.970Z,11.80
2018-05-18T05:20:22.648Z,11.90
2018-05-18T05:22:52.186Z,12.00
2018-05-18T05:25:23.886Z,12.10
2018-05-18T05:27:53.667Z,12.20
2018-05-18T05:30:23.163Z,12.30
2018-05-18T05:32:52.601Z,12.20
2018-05-18T05:35:21.935Z,12.20
2018-05-18T05:37:51.289Z,12.10
2018-05-18T05:40:21.532Z,12.30
2018-05-18T05:42:51.128Z,12.30
2018-05-18T05:45:20.375Z,12.40
2018-05-18T05:47:50.011Z,12.40
2018-05-18T05:50:20.106Z,12.50
2018-05-18T05:52:50.868Z,12.60
2018-05-18T05:55:20.748Z,12.70
2018-05-18T05:57:51.294Z,12.80
2018-05-18T06:00:19.407Z,12.90
2018-05-18T06:02:57.460Z,12.90
2018-05-18T06:05:26.613Z,12.90
2018-05-18T06:07:57.247Z,13.00
2018-05-18T06:10:26.616Z,13.20
2018-05-18T06:12:55.354Z,13.20
2018-05-18T06:15:24.770Z,13.30
2018-05-18T06:17:55.345Z,13.30
2018-05-18T06:20:23.786Z,13.40
2018-05-18T06:22:52.986Z,13.40
2018-05-18T06:25:22.121Z,13.50
2018-05-18T06:27:51.035Z,13.60
2018-05-18T06:30:20.182Z,13.70
2018-05-18T06:32:49.449Z,13.90
2018-05-18T06:35:18.102Z,13.90
2018-05-18T06:37:47.091Z,13.90
2018-05-18T06:40:17.051Z,13.80
2018-05-18T06:42:47.213Z,13.90
2018-05-18T06:45:16.783Z,14.10
2018-05-18T06:47:47.021Z,14.30
2018-05-18T06:50:29.215Z,14.30
2018-05-18T06:53:01.620Z,14.50
2018-05-18T06:55:30.849Z,14.50
2018-05-18T06:58:00.465Z,14.60
2018-05-18T07:00:28.689Z,14.50
2018-05-18T07:02:57.107Z,14.60
2018-05-18T07:05:26.469Z,14.80
2018-05-18T07:07:56.006Z,14.90
2018-05-18T07:10:24.643Z,15.10
2018-05-18T07:12:53.620Z,15.10
2018-05-18T07:15:21.669Z,15.00
2018-05-18T07:17:52.013Z,15.20
2018-05-18T07:20:21.624Z,15.70
2018-05-18T07:22:51.451Z,15.70
2018-05-18T07:25:20.686Z,15.60
2018-05-18T07:27:49.905Z,15.60
2018-05-18T07:30:19.572Z,15.60
2018-05-18T07:32:48.405Z,15.60
2018-05-18T07:35:16.546Z,15.90
2018-05-18T07:37:46.081Z,16.10
2018-05-18T07:40:15.403Z,16.20
2018-05-18T07:42:45.522Z,16.40
2018-05-18T07:45:14.205Z,16.60
2018-05-18T07:47:43.592Z,16.80
2018-05-18T07:50:11.924Z,17.00
2018-05-18T07:52:42.019Z,17.20
2018-05-18T07:55:11.574Z,17.30
2018-05-18T07:57:40.300Z,17.50
2018-05-18T08:00:09.472Z,17.60
2018-05-18T08:02:38.719Z,17.70
2018-05-18T08:05:07.937Z,17.70
2018-05-18T08:07:42.548Z,18.00
2018-05-18T08:10:11.389Z,18.00
2018-05-18T08:12:41.308Z,18.20
2018-05-18T08:15:10.655Z,18.10
2018-05-18T08:17:40.523Z,18.20
2018-05-18T08:20:09.402Z,17.90
2018-05-18T08:22:38.455Z,17.70
2018-05-18T08:25:08.391Z,17.60
2018-05-18T08:27:37.794Z,17.50
2018-05-18T08:30:06.860Z,17.40
2018-05-18T08:32:37.834Z,17.30
2018-05-18T08:35:06.787Z,17.30
2018-05-18T08:37:35.505Z,17.40
2018-05-18T08:40:05.115Z,18.10
2018-05-18T08:42:35.262Z,18.60
2018-05-18T08:45:04.466Z,18.50
2018-05-18T08:47:32.850Z,18.90
2018-05-18T08:50:01.671Z,19.10
2018-05-18T08:52:30.277Z,19.40
2018-05-18T08:55:00.549Z,19.40
2018-05-18T08:57:29.184Z,19.20
2018-05-18T08:59:58.475Z,19.20
2018-05-18T09:02:29.185Z,19.10
2018-05-18T09:05:01.928Z,19.00
2018-05-18T09:07:31.349Z,19.10
2018-05-18T09:10:00.469Z,19.30
2018-05-18T09:12:29.121Z,19.50
2018-05-18T09:14:57.493Z,19.80
2018-05-18T09:17:27.446Z,20.00
2018-05-18T09:19:56.815Z,20.00
2018-05-18T09:22:25.142Z,20.20
2018-05-18T09:24:55.415Z,20.50
2018-05-18T09:27:25.643Z,20.70
2018-05-18T09:29:56.286Z,20.90
2018-05-18T09:32:24.843Z,20.90
2018-05-18T09:34:53.671Z,20.90
2018-05-18T09:37:22.180Z,20.80
2018-05-18T09:40:01.740Z,21.00
2018-05-18T09:42:31.969Z,21.00
2018-05-18T09:45:02.569Z,20.80
2018-05-18T09:47:34.522Z,20.50
2018-05-18T09:50:04.721Z,20.50
2018-05-18T09:52:33.723Z,20.50
2018-05-18T09:55:10.200Z,20.70
2018-05-18T09:57:39.522Z,21.20
2018-05-18T10:02:59.510Z,21.50
2018-05-18T10:05:28.929Z,21.50
2018-05-18T10:07:57.442Z,21.30
2018-05-18T10:10:26.211Z,21.10
2018-05-18T10:12:55.160Z,21.00
2018-05-18T10:15:23.617Z,21.20
2018-05-18T10:17:52.687Z,21.10
2018-05-18T10:20:20.943Z,21.10
2018-05-18T10:22:50.293Z,20.90
2018-05-18T10:25:26.241Z,20.70
2018-05-18T10:27:54.342Z,20.70
2018-05-18T10:30:31.946Z,20.90
2018-05-18T10:33:01.992Z,21.20
2018-05-18T10:35:31.634Z,21.60
2018-05-18T10:38:00.882Z,21.90
2018-05-18T10:40:30.979Z,21.90
2018-05-18T10:43:02.414Z,21.60
2018-05-18T10:45:34.190Z,21.50
2018-05-18T10:48:03.856Z,21.10
2018-05-18T10:50:34.017Z,21.00
2018-05-18T10:53:04.478Z,21.10
2018-05-18T10:55:33.939Z,21.10
2018-05-18T10:58:04.162Z,21.30
2018-05-18T11:00:42.533Z,21.30
2018-05-18T11:03:15.778Z,21.00
2018-05-18T11:05:48.645Z,20.50
2018-05-18T11:08:18.765Z,20.70
2018-05-18T11:10:47.067Z,20.90
2018-05-18T11:13:19.755Z,20.90
2018-05-18T11:15:52.183Z,20.80
2018-05-18T11:18:25.400Z,21.70
2018-05-18T11:20:56.835Z,21.90
2018-05-18T11:23:30.259Z,21.80
2018-05-18T11:26:02.874Z,22.00
2018-05-18T11:28:35.243Z,22.20
2018-05-18T11:31:04.824Z,22.40
2018-05-18T11:33:34.023Z,22.50
2018-05-18T11:36:06.199Z,22.80
2018-05-18T11:38:41.074Z,22.40
2018-05-18T11:41:10.252Z,22.30
2018-05-18T11:43:39.006Z,21.20
2018-05-18T11:46:08.787Z,21.90
2018-05-18T11:48:39.494Z,22.10
2018-05-18T11:51:10.572Z,22.10
2018-05-18T11:53:44.833Z,22.20
2018-05-18T11:56:15.512Z,22.40
2018-05-18T11:58:49.411Z,22.30
2018-05-18T12:01:21.762Z,22.30
2018-05-18T12:03:55.923Z,21.90
2018-05-18T12:06:24.519Z,21.50
2018-05-18T12:08:53.517Z,21.30
2018-05-18T12:11:22.603Z,21.40
2018-05-18T12:13:50.800Z,21.60
2018-05-18T12:18:56.152Z,21.40
2018-05-18T12:21:25.279Z,21.60
2018-05-18T12:23:55.083Z,21.80
2018-05-18T12:26:24.104Z,21.70
2018-05-18T12:28:53.253Z,21.90
2018-05-18T12:31:22.625Z,22.10
2018-05-18T12:33:51.878Z,22.20
2018-05-18T12:36:23.348Z,22.20
2018-05-18T12:38:52.400Z,22.20
2018-05-18T12:41:21.408Z,22.00
2018-05-18T12:44:16.688Z,22.00
2018-05-18T12:46:46.846Z,22.00
2018-05-18T12:49:16.587Z,22.00
2018-05-18T12:51:46.813Z,22.10
2018-05-18T12:54:15.432Z,22.00
2018-05-18T12:56:45.441Z,22.00
2018-05-18T12:59:14.115Z,21.90
2018-05-18T13:01:46.112Z,21.80
2018-05-18T13:04:15.476Z,21.80
2018-05-18T13:06:45.925Z,21.80
2018-05-18T13:09:15.240Z,21.90
2018-05-18T13:11:45.813Z,22.00
2018-05-18T13:14:14.683Z,22.00
2018-05-18T13:16:44.652Z,21.90
2018-05-18T13:19:15.287Z,21.80
2018-05-18T13:21:45.495Z,21.90
2018-05-18T13:24:14.619Z,22.00
2018-05-18T13:26:47.224Z,22.00
2018-05-18T13:29:16.659Z,22.00
2018-05-18T13:31:46.922Z,21.90
2018-05-18T13:34:16.373Z,21.80
2018-05-18T13:36:50.513Z,21.50
2018-05-18T13:39:19.791Z,21.40
2018-05-18T13:41:48.401Z,21.20
2018-05-18T13:44:19.666Z,21.10
2018-05-18T13:46:49.438Z,21.10
2018-05-18T13:49:19.011Z,21.10
2018-05-18T13:51:47.466Z,21.10
2018-05-18T13:54:16.676Z,21.30
2018-05-18T13:56:46.013Z,21.70
2018-05-18T13:59:14.982Z,21.60
2018-05-18T14:01:44.962Z,21.90
2018-05-18T14:04:15.407Z,21.90
2018-05-18T14:06:43.437Z,21.90
2018-05-18T14:09:11.384Z,21.90
2018-05-18T14:11:40.058Z,21.80
2018-05-18T14:14:08.202Z,21.70
2018-05-18T14:16:36.992Z,21.60
2018-05-18T14:19:05.572Z,21.60
2018-05-18T14:21:34.452Z,21.80
2018-05-18T14:24:04.244Z,21.90
2018-05-18T14:26:33.267Z,21.60
2018-05-18T14:29:02.311Z,21.60
2018-05-18T14:31:32.615Z,21.60
2018-05-18T14:34:01.144Z,21.30
2018-05-18T14:36:30.099Z,21.40
2018-05-18T14:38:59.278Z,21.50
2018-05-18T14:41:29.807Z,21.60
2018-05-18T14:43:59.934Z,21.70
2018-05-18T14:46:30.021Z,21.70
2018-05-18T14:48:59.275Z,21.70
2018-05-18T14:51:28.220Z,21.80
2018-05-18T14:53:56.861Z,21.90
2018-05-18T14:56:27.219Z,22.00
2018-05-18T14:58:57.570Z,22.10
2018-05-18T15:01:26.852Z,22.20
2018-05-18T15:03:56.093Z,22.20
2018-05-18T15:06:25.574Z,22.30
2018-05-18T15:08:56.926Z,22.30
2018-05-18T15:11:35.432Z,22.20
2018-05-18T15:14:05.511Z,22.10
2018-05-18T15:16:36.700Z,21.50
2018-05-18T15:19:06.129Z,21.70
2018-05-18T15:21:35.567Z,21.70
2018-05-18T15:24:06.835Z,21.80
2018-05-18T15:26:36.570Z,21.80
2018-05-18T15:29:05.601Z,21.90
2018-05-18T15:31:35.691Z,21.80
2018-05-18T15:34:05.023Z,21.90
2018-05-18T15:36:34.152Z,22.00
2018-05-18T15:39:02.608Z,22.10
2018-05-18T15:41:31.878Z,22.20
2018-05-18T15:44:02.160Z,22.20
2018-05-18T15:46:32.556Z,22.10
2018-05-18T15:49:03.183Z,22.20
2018-05-18T15:51:41.657Z,22.20
2018-05-18T15:54:12.294Z,22.30
2018-05-18T15:56:43.808Z,22.00
2018-05-18T15:59:15.034Z,22.00
2018-05-18T16:01:44.815Z,21.90
2018-05-18T16:04:13.615Z,21.80
2018-05-18T16:06:42.043Z,21.80
2018-05-18T16:09:12.274Z,22.00
2018-05-18T16:11:41.336Z,22.10
2018-05-18T16:14:16.303Z,22.20
2018-05-18T16:16:46.408Z,22.20
2018-05-18T16:19:15.235Z,22.00
2018-05-18T16:21:44.752Z,22.00
2018-05-18T16:24:13.739Z,22.00
2018-05-18T16:26:42.466Z,22.00
2018-05-18T16:29:13.203Z,22.00
2018-05-18T16:31:42.671Z,22.00
2018-05-18T16:34:16.479Z,22.00
2018-05-18T16:36:44.884Z,22.00
2018-05-18T16:39:12.766Z,21.90
2018-05-18T16:41:40.687Z,21.80
2018-05-18T16:44:14.236Z,21.80
2018-05-18T16:46:42.845Z,21.80
2018-05-18T16:49:10.993Z,21.80
2018-05-18T16:51:40.127Z,21.80
2018-05-18T16:54:10.123Z,21.70
2018-05-18T16:56:39.602Z,21.80
2018-05-18T16:59:08.319Z,21.80
2018-05-18T17:01:36.234Z,21.80
2018-05-18T17:04:05.321Z,21.80
2018-05-18T17:06:34.851Z,21.70
2018-05-18T17:09:04.215Z,21.60
2018-05-18T17:11:33.543Z,21.60
2018-05-18T17:14:04.909Z,21.60
2018-05-18T17:16:35.268Z,21.60
2018-05-18T17:19:04.000Z,21.60
2018-05-18T17:21:34.248Z,21.70
2018-05-18T17:24:04.163Z,21.60
2018-05-18T17:26:35.841Z,21.60
2018-05-18T17:29:06.486Z,21.50
2018-05-18T17:31:35.849Z,21.30
2018-05-18T17:34:07.265Z,21.20
2018-05-18T17:36:38.008Z,21.10
2018-05-18T17:39:14.782Z,21.00
2018-05-18T17:41:45.284Z,20.90
2018-05-18T17:44:14.066Z,20.80
2018-05-18T17:46:43.719Z,20.60
2018-05-18T17:49:14.170Z,20.50
2018-05-18T17:51:44.367Z,20.50
2018-05-18T17:54:17.660Z,20.40
2018-05-18T17:56:49.047Z,20.20
2018-05-18T17:59:26.369Z,20.20
2018-05-18T18:01:57.489Z,20.10
2018-05-18T18:04:27.079Z,20.00
2018-05-18T18:06:56.252Z,20.00
2018-05-18T18:09:25.837Z,20.00
2018-05-18T18:11:54.015Z,19.90
2018-05-18T18:14:23.371Z,19.90
2018-05-18T18:16:52.712Z,19.80
2018-05-18T18:19:22.355Z,19.70
2018-05-18T18:21:52.002Z,19.70
2018-05-18T18:24:21.333Z,19.60
2018-05-18T18:26:49.931Z,19.50
2018-05-18T18:29:18.659Z,19.40
2018-05-18T18:31:48.017Z,19.30
2018-05-18T18:34:16.876Z,19.20
2018-05-18T18:36:49.768Z,19.20
2018-05-18T18:39:22.593Z,19.20
2018-05-18T18:41:53.459Z,19.10
2018-05-18T18:44:21.669Z,19.10
2018-05-18T18:46:51.652Z,19.10
2018-05-18T18:49:21.030Z,19.00
2018-05-18T18:51:50.079Z,18.80
2018-05-18T18:54:18.918Z,18.80
2018-05-18T18:56:49.441Z,18.80
2018-05-18T18:59:22.439Z,18.80
2018-05-18T19:01:52.281Z,18.80
2018-05-18T19:04:27.010Z,18.70
2018-05-18T19:06:56.551Z,18.50
2018-05-18T19:09:26.246Z,18.40
2018-05-18T19:11:55.655Z,18.40
2018-05-18T19:14:25.643Z,18.30
2018-05-18T19:16:55.184Z,18.20
2018-05-18T19:19:24.947Z,18.20
2018-05-18T19:21:54.388Z,18.10
2018-05-18T19:24:23.234Z,18.00
2018-05-18T19:26:53.397Z,18.00
2018-05-18T19:29:24.445Z,17.90
2018-05-18T19:31:53.010Z,17.80
2018-05-18T19:34:21.342Z,17.70
2018-05-18T19:36:50.277Z,17.70
2018-05-18T19:39:20.688Z,17.60
2018-05-18T19:41:51.976Z,17.40
2018-05-18T19:44:22.008Z,17.40
2018-05-18T19:46:51.861Z,17.30
2018-05-18T19:49:21.511Z,17.20
2018-05-18T19:51:50.673Z,17.20
2018-05-18T19:54:20.206Z,17.00
2018-05-18T19:56:48.436Z,17.00
2018-05-18T19:59:17.819Z,16.90
2018-05-18T20:01:49.036Z,16.70
2018-05-18T20:04:18.370Z,16.70
2018-05-18T20:06:47.589Z,16.60
2018-05-18T20:09:17.157Z,16.50
2018-05-18T20:11:46.765Z,16.40
2018-05-18T20:14:15.701Z,16.40
2018-05-18T20:16:45.014Z,16.40
2018-05-18T20:19:15.389Z,16.40
2018-05-18T20:21:45.109Z,16.40
2018-05-18T20:24:15.009Z,16.30
2018-05-18T20:26:43.275Z,16.40
2018-05-18T20:29:12.779Z,16.30
2018-05-18T20:31:43.138Z,16.30
2018-05-18T20:34:13.538Z,16.20
2018-05-18T20:36:42.885Z,16.30
2018-05-18T20:39:17.686Z,16.20
2018-05-18T20:41:47.698Z,16.10
2018-05-18T20:44:17.352Z,15.90
2018-05-18T20:46:46.898Z,15.80
2018-05-18T20:49:16.596Z,15.80
2018-05-18T20:51:45.916Z,15.80
2018-05-18T20:54:15.716Z,15.70
2018-05-18T20:56:45.878Z,15.60
2018-05-18T20:59:15.243Z,15.60
2018-05-18T21:01:45.684Z,15.60
2018-05-18T21:04:15.220Z,15.60
2018-05-18T21:06:44.682Z,15.50
2018-05-18T21:09:15.442Z,15.60
2018-05-18T21:11:44.830Z,15.60
2018-05-18T21:14:15.204Z,15.40
2018-05-18T21:16:44.261Z,15.40
2018-05-18T21:19:13.759Z,15.30
2018-05-18T21:21:42.771Z,15.20
2018-05-18T21:24:12.331Z,15.20
2018-05-18T21:26:41.170Z,15.20
2018-05-18T21:29:18.649Z,15.10
2018-05-18T21:31:47.474Z,15.10
2018-05-18T21:34:16.873Z,15.10
2018-05-18T21:36:46.358Z,15.20
2018-05-18T21:39:15.760Z,15.30
2018-05-18T21:41:43.792Z,15.30
2018-05-18T21:44:13.508Z,15.30
2018-05-18T21:46:42.918Z,15.20
2018-05-18T21:49:12.487Z,15.20
2018-05-18T21:51:42.166Z,15.20
2018-05-18T21:54:11.987Z,15.20
2018-05-18T21:56:41.389Z,14.30
2018-05-18T21:59:11.906Z,15.10
2018-05-18T22:01:42.507Z,15.10
2018-05-18T22:04:13.211Z,15.10
2018-05-18T22:06:42.925Z,15.10
2018-05-18T22:09:12.484Z,15.10
2018-05-18T22:11:45.420Z,15.00
2018-05-18T22:14:17.118Z,14.90
2018-05-18T22:16:47.915Z,14.90
2018-05-18T22:19:17.350Z,14.90
2018-05-18T22:21:48.018Z,14.80
2018-05-18T22:24:27.124Z,14.80
2018-05-18T22:26:59.887Z,14.60
2018-05-18T22:29:30.310Z,14.60
2018-05-18T22:32:00.032Z,14.60
2018-05-18T22:34:29.547Z,14.60
2018-05-18T22:36:59.972Z,14.50
2018-05-18T22:39:30.280Z,14.40
2018-05-18T22:41:59.995Z,14.40
2018-05-18T22:44:29.419Z,14.50
2018-05-18T22:47:00.259Z,14.40
2018-05-18T22:49:29.207Z,14.40
2018-05-18T22:51:58.766Z,14.30
2018-05-18T22:54:27.166Z,14.30
2018-05-18T22:56:54.820Z,14.30
2018-05-18T22:59:24.975Z,14.30
2018-05-18T23:01:52.661Z,14.30
2018-05-18T23:04:22.975Z,14.30
2018-05-18T23:06:50.634Z,14.30
2018-05-18T23:09:18.301Z,14.30
2018-05-18T23:11:45.929Z,14.30
2018-05-18T23:14:13.538Z,14.20
2018-05-18T23:16:41.234Z,14.20
2018-05-18T23:19:08.902Z,14.20
2018-05-18T23:21:36.634Z,14.20
2018-05-18T23:24:04.256Z,14.10
2018-05-18T23:26:31.933Z,14.10
2018-05-18T23:28:59.561Z,14.10
2018-05-18T23:31:27.262Z,14.00
2018-05-18T23:33:54.990Z,14.10
2018-05-18T23:36:22.635Z,14.20
2018-05-18T23:38:51.059Z,14.10
2018-05-18T23:41:18.710Z,14.10
2018-05-18T23:43:46.299Z,14.10
2018-05-18T23:46:13.918Z,14.20
2018-05-18T23:48:41.569Z,14.20
2018-05-18T23:51:09.179Z,14.20
2018-05-18T23:53:36.917Z,14.20
2018-05-18T23:56:09.338Z,14.10
2018-05-18T23:58:37.020Z,14.20
